KCKZ

Pennridge Airport

Perkasie, Pennsylvania, USA
METAR KCKZ 212335Z AUTO 00000KT 10SM CLR 25/20 A2981 RMK AO2
Observed Flight Rules
Jun-21 @ 23:35 UTC (23 minutes ago) Visual Flight Rules
Visibility Clouds
10 miles
  • Clear skies
Temperatures Readings
Current 25°C / 77°F
Dewpoint 20°C / 68°F
Humidity 74%
Altimeter 29.81" Hg
Pressure 1009 hPa
Elevation 173
METAR KCKZ 212335Z AUTO 00000KT 10SM CLR 25/20 A2981 RMK AO2
Observed Flight Rules
Jun-21 @ 23:35 UTC
(23 minutes ago)
VFR
Clouds
  • Clear skies
Temperature Dewpoint
25°C / 77°F 20°C / 68°F
Humidity Altimeter Pressure
74% 29.81" Hg 1009 hPa